Private Wetterstation Wechselburg
Wetterdaten: Mittwoch, 25.05.2011
Datum Zeit Temp. +2m Bodentemp. Temp.+5cm Temp. Wind Windchill X Diff Temp. Feuchte +2m Feuchte +5cm Sonnenschein Luftdruck Regen Wind Richtung Richtung Sonnenschein UV Taupunkt Windchill Windben
25.05.2011 00:00 13,6 C 18,6 C 11,3 C 12,2 C 9,3 C 0,0 C 65 % 76 % 0 % 1025,2 hPa 0,0 l/m 0,2 km/h (0 Bft) NW 315 0 min 0,0 UV-I 7,1 C 9,3 C 0,0 km/h (0 Bft)
25.05.2011 00:10 13,3 C 18,6 C 11,2 C 11,9 C 9,2 C 0,0 C 66 % 76 % 0 % 1025,6 hPa 0,0 l/m 0,0 km/h (0 Bft) N 0 0 min 0,0 UV-I 7,1 C 9,2 C 0,0 km/h (0 Bft)
25.05.2011 00:15 13,1 C 18,5 C 11,2 C 11,8 C 9,2 C 0,0 C 68 % 78 % 0 % 1025,6 hPa 0,0 l/m 0,2 km/h (0 Bft) SW 225 0 min 0,0 UV-I 7,3 C 9,2 C 1,6 km/h (1 Bft)
25.05.2011 00:20 13,2 C 18,5 C 11,1 C 11,9 C 9,3 C 0,0 C 68 % 78 % 0 % 1025,6 hPa 0,0 l/m 0,3 km/h (0 Bft) W-SW 247 0 min 0,0 UV-I 7,4 C 9,3 C 2,9 km/h (1 Bft)
25.05.2011 00:25 13,2 C 18,5 C 11,0 C 11,9 C 9,3 C 0,0 C 67 % 78 % 0 % 1025,6 hPa 0,0 l/m 0,3 km/h (0 Bft) W 270 0 min 0,0 UV-I 7,2 C 9,3 C 0,0 km/h (0 Bft)
25.05.2011 00:30 13,2 C 18,5 C 11,1 C 11,9 C 9,2 C 0,0 C 69 % 80 % 0 % 1025,8 hPa 0,0 l/m 0,3 km/h (0 Bft) SW 225 0 min 0,0 UV-I 7,6 C 9,2 C 1,8 km/h (1 Bft)
25.05.2011 00:35 13,2 C 18,5 C 11,1 C 11,9 C 9,2 C 0,0 C 69 % 80 % 0 % 1025,8 hPa 0,0 l/m 0,2 km/h (0 Bft) S 180 0 min 0,0 UV-I 7,6 C 9,2 C 0,0 km/h (0 Bft)
25.05.2011 00:40 12,9 C 18,5 C 10,9 C 11,6 C 9,1 C 0,0 C 68 % 79 % 0 % 1025,8 hPa 0,0 l/m 0,0 km/h (0 Bft) SW 225 0 min 0,0 UV-I 7,1 C 9,1 C 0,0 km/h (0 Bft)
25.05.2011 00:45 12,8 C 18,5 C 10,9 C 11,5 C 9,0 C 0,0 C 68 % 79 % 0 % 1025,8 hPa 0,0 l/m 0,0 km/h (0 Bft) SW 225 0 min 0,0 UV-I 7,0 C 9,0 C 0,0 km/h (0 Bft)
25.05.2011 00:50 12,6 C 18,4 C 10,8 C 11,4 C 9,0 C 0,0 C 68 % 79 % 0 % 1025,8 hPa 0,0 l/m 0,0 km/h (0 Bft) NO 45 0 min 0,0 UV-I 6,9 C 9,0 C 0,0 km/h (0 Bft)
25.05.2011 00:55 12,5 C 18,4 C 10,7 C 11,3 C 9,0 C 0,0 C 68 % 78 % 0 % 1025,8 hPa 0,0 l/m 0,0 km/h (0 Bft) O-NO 67 0 min 0,0 UV-I 6,8 C 9,0 C 0,0 km/h (0 Bft)
25.05.2011 01:00 12,7 C 18,4 C 10,6 C 11,4 C 8,9 C 0,0 C 68 % 79 % 0 % 1025,8 hPa 0,0 l/m 0,0 km/h (0 Bft) W 270 0 min 0,0 UV-I 6,9 C 8,9 C 0,0 km/h (0 Bft)
25.05.2011 01:09 12,7 C 18,4 C 10,6 C 11,4 C 8,8 C 0,0 C 69 % 80 % 0 % 1026,4 hPa 0,0 l/m 0,0 km/h (0 Bft) N 0 0 min 0,0 UV-I 7,2 C 8,8 C 0,0 km/h (0 Bft)
25.05.2011 01:15 12,6 C 18,3 C 10,5 C 11,3 C 8,7 C 0,0 C 70 % 81 % 0 % 1026,4 hPa 0,0 l/m 0,2 km/h (0 Bft) S-SW 202 0 min 0,0 UV-I 7,3 C 8,7 C 2,4 km/h (1 Bft)
25.05.2011 01:20 12,7 C 18,3 C 10,4 C 11,4 C 8,7 C 0,0 C 69 % 80 % 0 % 1026,4 hPa 0,0 l/m 0,8 km/h (0 Bft) SW 225 0 min 0,0 UV-I 7,2 C 8,7 C 3,2 km/h (1 Bft)
25.05.2011 01:25 12,7 C 18,3 C 10,3 C 11,3 C 8,6 C 0,0 C 70 % 82 % 0 % 1026,4 hPa 0,0 l/m 1,3 km/h (1 Bft) SW 225 0 min 0,0 UV-I 7,4 C 8,6 C 1,9 km/h (1 Bft)
25.05.2011 01:30 12,7 C 18,3 C 10,3 C 11,3 C 8,6 C 0,0 C 69 % 80 % 0 % 1026,4 hPa 0,0 l/m 1,3 km/h (1 Bft) S 180 0 min 0,0 UV-I 7,2 C 8,6 C 1,9 km/h (1 Bft)
25.05.2011 01:35 12,7 C 18,3 C 10,3 C 11,3 C 8,6 C 0,0 C 66 % 78 % 0 % 1026,4 hPa 0,0 l/m 1,4 km/h (1 Bft) S-SW 202 0 min 0,0 UV-I 6,5 C 8,6 C 3,5 km/h (1 Bft)
25.05.2011 01:40 12,8 C 18,2 C 10,5 C 11,5 C 8,9 C 0,0 C 63 % 72 % 0 % 1026,4 hPa 0,0 l/m 1,4 km/h (1 Bft) S 180 0 min 0,0 UV-I 5,9 C 8,9 C 0,0 km/h (0 Bft)
25.05.2011 01:45 12,8 C 18,2 C 10,6 C 11,6 C 9,1 C 0,0 C 62 % 74 % 0 % 1026,4 hPa 0,0 l/m 1,4 km/h (1 Bft) W-SW 247 0 min 0,0 UV-I 5,7 C 9,1 C 2,1 km/h (1 Bft)
25.05.2011 01:50 12,8 C 18,2 C 10,5 C 11,5 C 9,0 C 0,0 C 64 % 75 % 0 % 1026,9 hPa 0,0 l/m 1,4 km/h (1 Bft) S 180 0 min 0,0 UV-I 6,2 C 9,0 C 2,4 km/h (1 Bft)
25.05.2011 01:55 12,7 C 18,2 C 10,5 C 11,4 C 8,9 C 0,0 C 62 % 73 % 0 % 1026,9 hPa 0,0 l/m 1,3 km/h (1 Bft) W-NW 292 0 min 0,0 UV-I 5,6 C 8,9 C 1,8 km/h (1 Bft)
25.05.2011 02:00 12,8 C 18,1 C 10,5 C 11,5 C 8,9 C 0,0 C 61 % 71 % 0 % 1026,9 hPa 0,0 l/m 1,3 km/h (1 Bft) S-SW 202 0 min 0,0 UV-I 5,5 C 8,9 C 2,9 km/h (1 Bft)
25.05.2011 02:10 12,6 C 18,1 C 10,3 C 11,3 C 8,6 C 0,0 C 64 % 76 % 0 % 1026,8 hPa 0,0 l/m 1,6 km/h (1 Bft) N 0 0 min 0,0 UV-I 6,0 C 8,6 C 3,7 km/h (1 Bft)
25.05.2011 02:15 12,5 C 18,1 C 10,2 C 11,1 C 8,4 C 0,0 C 65 % 75 % 0 % 1026,8 hPa 0,0 l/m 1,3 km/h (1 Bft) SW 225 0 min 0,0 UV-I 6,1 C 8,4 C 0,0 km/h (0 Bft)
25.05.2011 02:20 12,5 C 18,1 C 10,0 C 11,1 C 8,2 C 0,0 C 64 % 75 % 0 % 1026,8 hPa 0,0 l/m 0,8 km/h (0 Bft) SW 225 0 min 0,0 UV-I 5,9 C 8,2 C 1,6 km/h (1 Bft)
25.05.2011 02:25 12,3 C 18,1 C 10,0 C 10,9 C 8,0 C 0,0 C 65 % 77 % 0 % 1026,8 hPa 0,0 l/m 0,8 km/h (0 Bft) S 180 0 min 0,0 UV-I 5,9 C 8,0 C 1,8 km/h (1 Bft)
25.05.2011 02:30 12,1 C 18,0 C 9,9 C 10,6 C 7,6 C 0,0 C 67 % 78 % 0 % 1027,7 hPa 0,0 l/m 0,5 km/h (0 Bft) S 180 0 min 0,0 UV-I 6,2 C 7,6 C 0,0 km/h (0 Bft)
25.05.2011 02:35 12,0 C 18,0 C 9,7 C 10,4 C 7,3 C 0,0 C 67 % 79 % 0 % 1027,7 hPa 0,0 l/m 0,2 km/h (0 Bft) N 360 0 min 0,0 UV-I 6,1 C 7,3 C 0,0 km/h (0 Bft)
25.05.2011 02:40 11,6 C 18,0 C 9,6 C 10,0 C 6,9 C 0,0 C 68 % 79 % 0 % 1027,7 hPa 0,0 l/m 0,0 km/h (0 Bft) S 180 0 min 0,0 UV-I 5,9 C 6,9 C 0,0 km/h (0 Bft)
25.05.2011 02:45 11,5 C 18,0 C 9,5 C 9,9 C 6,6 C 0,0 C 68 % 79 % 0 % 1027,7 hPa 0,0 l/m 0,0 km/h (0 Bft) S 180 0 min 0,0 UV-I 5,8 C 6,6 C 0,0 km/h (0 Bft)
25.05.2011 02:50 11,3 C 18,0 C 9,5 C 9,6 C 6,3 C 0,0 C 68 % 79 % 0 % 1027,2 hPa 0,0 l/m 0,0 km/h (0 Bft) S 180 0 min 0,0 UV-I 5,6 C 6,3 C 0,0 km/h (0 Bft)
25.05.2011 02:55 11,1 C 17,9 C 9,2 C 9,4 C 6,1 C 0,0 C 69 % 79 % 0 % 1027,2 hPa 0,0 l/m 0,0 km/h (0 Bft) S 180 0 min 0,0 UV-I 5,6 C 6,1 C 0,0 km/h (0 Bft)
25.05.2011 03:00 10,9 C 17,9 C 9,1 C 9,3 C 6,0 C 0,0 C 70 % 79 % 0 % 1027,2 hPa 0,0 l/m 0,0 km/h (0 Bft) S 180 0 min 0,0 UV-I 5,6 C 6,0 C 0,0 km/h (0 Bft)
25.05.2011 03:08 10,9 C 17,9 C 9,1 C 9,2 C 5,9 C 0,0 C 70 % 80 % 0 % 1027,2 hPa 0,0 l/m 0,0 km/h (0 Bft) N 0 0 min 0,0 UV-I 5,6 C 5,9 C 0,0 km/h (0 Bft)
25.05.2011 03:15 10,3 C 17,9 C 8,7 C 8,8 C 5,8 C 0,0 C 69 % 79 % 0 % 1027,2 hPa 0,0 l/m 0,0 km/h (0 Bft) O-NO 67 0 min 0,0 UV-I 4,9 C 5,8 C 0,0 km/h (0 Bft)
25.05.2011 03:20 10,3 C 17,9 C 8,5 C 8,8 C 5,7 C 0,0 C 70 % 79 % 0 % 1027,2 hPa 0,0 l/m 0,0 km/h (0 Bft) O-NO 67 0 min 0,0 UV-I 5,1 C 5,7 C 0,0 km/h (0 Bft)
25.05.2011 03:25 10,3 C 17,9 C 8,4 C 8,7 C 5,6 C 0,0 C 70 % 80 % 0 % 1027,2 hPa 0,0 l/m 0,0 km/h (0 Bft) O-NO 67 0 min 0,0 UV-I 5,1 C 5,6 C 0,0 km/h (0 Bft)
25.05.2011 03:30 10,3 C 17,9 C 8,4 C 8,7 C 5,6 C 0,0 C 72 % 80 % 0 % 1027,4 hPa 0,0 l/m 0,0 km/h (0 Bft) NW 315 0 min 0,0 UV-I 5,5 C 5,6 C 0,0 km/h (0 Bft)
25.05.2011 03:35 10,2 C 17,9 C 8,4 C 8,7 C 5,6 C 0,0 C 71 % 80 % 0 % 1027,4 hPa 0,0 l/m 0,0 km/h (0 Bft) N-NO 22 0 min 0,0 UV-I 5,2 C 5,6 C 0,0 km/h (0 Bft)
25.05.2011 03:40 10,1 C 17,9 C 8,3 C 8,6 C 5,5 C 0,0 C 71 % 80 % 0 % 1027,4 hPa 0,0 l/m 0,0 km/h (0 Bft) O-NO 67 0 min 0,0 UV-I 5,1 C 5,5 C 0,0 km/h (0 Bft)
25.05.2011 03:45 10,0 C 17,8 C 8,2 C 8,4 C 5,3 C 0,0 C 72 % 80 % 0 % 1027,4 hPa 0,0 l/m 0,0 km/h (0 Bft) O-NO 67 0 min 0,0 UV-I 5,2 C 5,3 C 0,0 km/h (0 Bft)
25.05.2011 03:50 10,0 C 17,8 C 8,1 C 8,4 C 5,1 C 0,0 C 72 % 82 % 0 % 1027,4 hPa 0,0 l/m 0,2 km/h (0 Bft) W 270 0 min 0,0 UV-I 5,2 C 5,1 C 0,0 km/h (0 Bft)
25.05.2011 03:55 9,9 C 17,8 C 8,0 C 8,3 C 5,0 C 0,0 C 72 % 82 % 0 % 1027,4 hPa 0,0 l/m 0,2 km/h (0 Bft) O 90 0 min 0,0 UV-I 5,1 C 5,0 C 0,0 km/h (0 Bft)
25.05.2011 04:00 9,5 C 17,8 C 7,9 C 8,0 C 5,0 C 0,0 C 72 % 81 % 0 % 1027,4 hPa 0,0 l/m 0,0 km/h (0 Bft) NO 45 0 min 0,0 UV-I 4,7 C 5,0 C 0,0 km/h (0 Bft)
25.05.2011 04:10 9,3 C 17,8 C 7,7 C 7,9 C 5,0 C 0,0 C 74 % 82 % 0 % 1027,7 hPa 0,0 l/m 0,2 km/h (0 Bft) N 0 0 min 0,0 UV-I 4,9 C 5,0 C 0,0 km/h (0 Bft)
25.05.2011 04:15 9,5 C 17,7 C 7,7 C 8,0 C 5,1 C 0,0 C 74 % 83 % 0 % 1027,7 hPa 0,0 l/m 0,3 km/h (0 Bft) W 270 0 min 0,0 UV-I 5,1 C 5,1 C 2,1 km/h (1 Bft)
25.05.2011 04:20 9,5 C 17,7 C 7,7 C 8,0 C 5,1 C 0,0 C 73 % 83 % 0 % 1027,7 hPa 0,0 l/m 0,3 km/h (0 Bft) O-NO 67 0 min 0,0 UV-I 4,9 C 5,1 C 0,0 km/h (0 Bft)
25.05.2011 04:25 9,5 C 17,7 C 7,6 C 8,0 C 5,0 C 0,0 C 74 % 83 % 0 % 1027,7 hPa 0,0 l/m 0,5 km/h (0 Bft) SW 225 0 min 0,0 UV-I 5,1 C 5,0 C 1,6 km/h (1 Bft)
25.05.2011 04:30 9,5 C 17,7 C 7,5 C 7,9 C 4,8 C 0,0 C 74 % 83 % 0 % 1027,8 hPa 0,0 l/m 0,5 km/h (0 Bft) S 180 0 min 0,0 UV-I 5,1 C 4,8 C 3,9 km/h (1 Bft)
25.05.2011 04:35 9,2 C 17,7 C 7,3 C 7,7 C 4,8 C 0,0 C 72 % 83 % 0 % 1027,8 hPa 0,0 l/m 0,5 km/h (0 Bft) N-NW 337 0 min 0,0 UV-I 4,4 C 4,8 C 0,0 km/h (0 Bft)
25.05.2011 04:40 9,0 C 17,6 C 7,3 C 7,5 C 4,5 C 0,0 C 73 % 83 % 0 % 1027,8 hPa 0,0 l/m 0,0 km/h (0 Bft) N-NW 337 0 min 0,0 UV-I 4,4 C 4,5 C 0,0 km/h (0 Bft)
25.05.2011 04:45 9,1 C 17,6 C 7,2 C 7,5 C 4,3 C 0,0 C 73 % 83 % 0 % 1027,8 hPa 0,0 l/m 0,0 km/h (0 Bft) N-NW 337 0 min 0,0 UV-I 4,5 C 4,3 C 0,0 km/h (0 Bft)
25.05.2011 04:50 8,8 C 17,7 C 7,1 C 7,3 C 4,3 C 0,0 C 74 % 83 % 0 % 1027,8 hPa 0,0 l/m 0,0 km/h (0 Bft) N-NW 337 0 min 0,0 UV-I 4,4 C 4,3 C 0,0 km/h (0 Bft)
25.05.2011 04:55 8,8 C 17,6 C 7,1 C 7,3 C 4,3 C 0,0 C 75 % 83 % 0 % 1027,8 hPa 0,0 l/m 0,0 km/h (0 Bft) N-NW 337 0 min 0,0 UV-I 4,6 C 4,3 C 0,0 km/h (0 Bft)
25.05.2011 05:00 8,8 C 17,6 C 7,0 C 7,3 C 4,3 C 0,0 C 75 % 83 % 0 % 1027,8 hPa 0,0 l/m 0,0 km/h (0 Bft) W-NW 292 0 min 0,0 UV-I 4,6 C 4,3 C 0,0 km/h (0 Bft)
25.05.2011 05:08 8,7 C 17,5 C 7,1 C 7,1 C 4,0 C 0,0 C 74 % 83 % 0 % 1027,9 hPa 0,0 l/m 0,0 km/h (0 Bft) N 0 0 min 0,0 UV-I 4,3 C 4,0 C 0,0 km/h (0 Bft)
25.05.2011 05:15 8,5 C 17,5 C 6,9 C 7,0 C 3,9 C 0,0 C 75 % 84 % 0 % 1027,9 hPa 0,0 l/m 0,0 km/h (0 Bft) W-SW 247 0 min 0,0 UV-I 4,3 C 3,9 C 0,0 km/h (0 Bft)
25.05.2011 05:20 8,7 C 17,5 C 7,0 C 7,1 C 3,8 C 0,0 C 75 % 84 % 0 % 1027,9 hPa 0,0 l/m 0,0 km/h (0 Bft) S-SW 202 0 min 0,0 UV-I 4,5 C 3,8 C 0,0 km/h (0 Bft)
25.05.2011 05:25 8,8 C 17,4 C 7,0 C 7,1 C 3,7 C 0,0 C 75 % 84 % 0 % 1027,9 hPa 0,0 l/m 0,0 km/h (0 Bft) W-SW 247 0 min 0,0 UV-I 4,6 C 3,7 C 0,0 km/h (0 Bft)
25.05.2011 05:30 8,7 C 17,4 C 7,0 C 7,0 C 3,6 C 0,0 C 75 % 85 % 0 % 1028,1 hPa 0,0 l/m 0,0 km/h (0 Bft) S-SO 157 0 min 0,0 UV-I 4,5 C 3,6 C 0,0 km/h (0 Bft)
25.05.2011 05:35 8,6 C 17,4 C 6,9 C 6,9 C 3,6 C 0,0 C 75 % 84 % 0 % 1028,1 hPa 0,0 l/m 0,0 km/h (0 Bft) W-SW 247 0 min 0,0 UV-I 4,4 C 3,6 C 0,0 km/h (0 Bft)
25.05.2011 05:40 8,6 C 17,4 C 6,7 C 7,0 C 3,7 C 0,0 C 75 % 84 % 0 % 1028,1 hPa 0,0 l/m 0,0 km/h (0 Bft) W-SW 247 0 min 0,0 UV-I 4,4 C 3,7 C 0,0 km/h (0 Bft)
25.05.2011 05:45 8,7 C 17,4 C 6,8 C 7,1 C 3,8 C 0,0 C 75 % 84 % 0 % 1028,1 hPa 0,0 l/m 0,0 km/h (0 Bft) W-SW 247 0 min 0,0 UV-I 4,5 C 3,8 C 0,0 km/h (0 Bft)
25.05.2011 05:50 8,6 C 17,3 C 6,9 C 7,0 C 3,8 C 0,0 C 75 % 85 % 0 % 1028,3 hPa 0,0 l/m 0,0 km/h (0 Bft) S 180 0 min 0,0 UV-I 4,4 C 3,8 C 0,0 km/h (0 Bft)
25.05.2011 05:55 8,7 C 17,3 C 6,8 C 7,1 C 3,9 C 0,0 C 75 % 84 % 0 % 1028,3 hPa 0,0 l/m 0,0 km/h (0 Bft) S 180 0 min 0,0 UV-I 4,5 C 3,9 C 0,0 km/h (0 Bft)
25.05.2011 06:00 8,7 C 17,3 C 6,9 C 7,2 C 4,1 C 0,0 C 75 % 85 % 0 % 1028,3 hPa 0,0 l/m 0,2 km/h (0 Bft) W-SW 247 0 min 0,0 UV-I 4,5 C 4,1 C 1,6 km/h (1 Bft)
25.05.2011 06:10 8,8 C 17,3 C 6,8 C 7,3 C 4,3 C 0,0 C 75 % 85 % 0 % 1028,4 hPa 0,0 l/m 0,3 km/h (0 Bft) N 0 0 min 0,0 UV-I 4,6 C 4,3 C 0,0 km/h (0 Bft)
25.05.2011 06:15 8,8 C 17,2 C 6,8 C 7,4 C 4,5 C 0,0 C 75 % 85 % 0 % 1028,4 hPa 0,0 l/m 0,0 km/h (0 Bft) S 180 0 min 0,0 UV-I 4,6 C 4,5 C 0,0 km/h (0 Bft)
25.05.2011 06:20 9,3 C 17,2 C 7,1 C 7,8 C 4,7 C 0,0 C 75 % 85 % 0 % 1028,4 hPa 0,0 l/m 0,0 km/h (0 Bft) S 180 0 min 0,0 UV-I 5,1 C 4,7 C 0,0 km/h (0 Bft)
25.05.2011 06:25 10,0 C 17,2 C 7,0 C 8,3 C 4,8 C 0,0 C 74 % 85 % 0 % 1028,4 hPa 0,0 l/m 0,2 km/h (0 Bft) S 180 0 min 0,0 UV-I 5,6 C 4,8 C 1,9 km/h (1 Bft)
25.05.2011 06:30 9,7 C 17,1 C 7,2 C 8,2 C 5,1 C 0,0 C 73 % 86 % 0 % 1028,1 hPa 0,0 l/m 0,5 km/h (0 Bft) S 180 0 min 0,0 UV-I 5,1 C 5,1 C 1,6 km/h (1 Bft)
25.05.2011 06:35 10,4 C 17,1 C 7,2 C 8,7 C 5,3 C 0,0 C 72 % 86 % 0 % 1028,1 hPa 0,0 l/m 0,3 km/h (0 Bft) W 270 0 min 0,0 UV-I 5,6 C 5,3 C 0,0 km/h (0 Bft)
25.05.2011 06:40 10,5 C 17,1 C 7,2 C 8,9 C 5,6 C 0,0 C 70 % 86 % 0 % 1028,1 hPa 0,0 l/m 0,0 km/h (0 Bft) SW 225 0 min 0,0 UV-I 5,3 C 5,6 C 0,0 km/h (0 Bft)
25.05.2011 06:45 10,5 C 17,1 C 7,2 C 8,9 C 5,8 C 0,0 C 71 % 86 % 0 % 1028,1 hPa 0,0 l/m 0,2 km/h (0 Bft) SW 225 0 min 0,0 UV-I 5,5 C 5,8 C 0,0 km/h (0 Bft)
25.05.2011 06:50 13,5 C 17,0 C 7,2 C 11,1 C 6,4 C 0,0 C 66 % 86 % 0 % 1028,2 hPa 0,0 l/m 0,0 km/h (0 Bft) W-SW 247 0 min 0,0 UV-I 7,3 C 6,4 C 0,0 km/h (0 Bft)
25.05.2011 06:55 14,9 C 17,1 C 7,2 C 12,8 C 8,5 C 0,0 C 62 % 86 % 0 % 1028,2 hPa 0,0 l/m 0,0 km/h (0 Bft) S 180 0 min 0,0 UV-I 7,7 C 8,5 C 0,0 km/h (0 Bft)
25.05.2011 07:00 17,0 C 17,1 C 7,2 C 15,3 C 11,9 C 0,0 C 57 % 86 % 0 % 1028,2 hPa 0,0 l/m 0,2 km/h (0 Bft) S-SW 202 0 min 0,0 UV-I 8,4 C 11,9 C 0,0 km/h (0 Bft)
25.05.2011 07:08 18,8 C 17,1 C 7,2 C 16,9 C 13,2 C 0,0 C 53 % 86 % 0 % 1028,2 hPa 0,0 l/m 0,3 km/h (0 Bft) N 0 0 min 0,0 UV-I 9,0 C 13,2 C 0,0 km/h (0 Bft)
25.05.2011 07:15 15,3 C 17,0 C 7,2 C 15,6 C 15,6 C 0,3 C 56 % 86 % 8 % 1028,4 hPa 0,0 l/m 0,3 km/h (0 Bft) S 180 0 min 0,1 UV-I 6,6 C 15,6 C 0,0 km/h (0 Bft)
25.05.2011 07:20 14,4 C 17,0 C 7,2 C 16,6 C 16,6 C 2,2 C 58 % 86 % 58 % 1028,4 hPa 0,0 l/m 0,0 km/h (0 Bft) SW 225 0 min 0,1 UV-I 6,2 C 16,6 C 0,0 km/h (0 Bft)
25.05.2011 07:25 13,9 C 17,0 C 7,2 C 17,2 C 17,2 C 3,3 C 60 % 86 % 87 % 1028,4 hPa 0,0 l/m 0,0 km/h (0 Bft) S-SW 202 5 min 0,1 UV-I 6,3 C 17,2 C 0,0 km/h (0 Bft)
25.05.2011 07:30 13,6 C 17,0 C 7,2 C 18,2 C 18,2 C 4,6 C 61 % 86 % 100 % 1028,5 hPa 0,0 l/m 0,0 km/h (0 Bft) S-SW 202 5 min 0,1 UV-I 6,2 C 18,2 C 0,0 km/h (0 Bft)
25.05.2011 07:35 13,6 C 16,9 C 7,2 C 18,5 C 18,5 C 4,9 C 61 % 86 % 100 % 1028,5 hPa 0,0 l/m 0,0 km/h (0 Bft) S 180 5 min 0,2 UV-I 6,2 C 18,5 C 0,0 km/h (0 Bft)
25.05.2011 07:40 13,5 C 16,9 C 7,2 C 18,8 C 18,8 C 5,3 C 62 % 86 % 100 % 1028,5 hPa 0,0 l/m 0,3 km/h (0 Bft) S-SW 202 5 min 0,2 UV-I 6,4 C 18,8 C 0,0 km/h (0 Bft)
25.05.2011 07:45 13,5 C 16,9 C 7,2 C 19,1 C 19,1 C 5,6 C 62 % 86 % 100 % 1028,5 hPa 0,0 l/m 0,3 km/h (0 Bft) S 180 5 min 0,2 UV-I 6,4 C 19,1 C 0,0 km/h (0 Bft)
25.05.2011 07:50 14,1 C 16,8 C 7,2 C 19,8 C 19,8 C 5,7 C 62 % 86 % 100 % 1028,8 hPa 0,0 l/m 0,3 km/h (0 Bft) S 180 5 min 0,3 UV-I 6,9 C 19,8 C 1,6 km/h (1 Bft)
25.05.2011 07:55 15,5 C 16,8 C 9,2 C 20,1 C 20,1 C 4,6 C 59 % 83 % 100 % 1028,8 hPa 0,0 l/m 0,2 km/h (0 Bft) S 180 5 min 0,3 UV-I 7,5 C 20,1 C 0,0 km/h (0 Bft)
25.05.2011 08:00 14,7 C 16,8 C 9,2 C 20,4 C 20,4 C 5,7 C 60 % 83 % 100 % 1028,8 hPa 0,0 l/m 0,3 km/h (0 Bft) S-SO 157 5 min 0,3 UV-I 7,0 C 20,4 C 1,6 km/h (1 Bft)
25.05.2011 08:10 14,8 C 16,8 C 9,2 C 20,5 C 20,5 C 5,7 C 59 % 83 % 100 % 1029,0 hPa 0,0 l/m 1,3 km/h (1 Bft) N 0 10 min 0,4 UV-I 6,9 C 20,5 C 4,3 km/h (1 Bft)
25.05.2011 08:15 14,9 C 16,8 C 9,2 C 20,7 C 20,7 C 5,8 C 59 % 83 % 100 % 1029,0 hPa 0,0 l/m 1,1 km/h (1 Bft) W-SW 247 5 min 0,5 UV-I 7,0 C 20,7 C 0,0 km/h (0 Bft)
25.05.2011 08:20 14,7 C 16,7 C 9,2 C 20,6 C 20,6 C 5,9 C 58 % 83 % 100 % 1029,0 hPa 0,0 l/m 1,4 km/h (1 Bft) S-SW 202 5 min 0,5 UV-I 6,5 C 20,6 C 3,4 km/h (1 Bft)
25.05.2011 08:25 14,8 C 16,7 C 9,2 C 20,2 C 20,2 C 5,4 C 58 % 83 % 100 % 1029,0 hPa 0,0 l/m 2,4 km/h (1 Bft) W 270 5 min 0,6 UV-I 6,6 C 20,2 C 1,6 km/h (1 Bft)
25.05.2011 08:30 15,5 C 16,8 C 9,2 C 20,5 C 20,5 C 5,0 C 56 % 83 % 100 % 1029,2 hPa 0,0 l/m 1,9 km/h (1 Bft) S 180 5 min 0,6 UV-I 6,8 C 20,5 C 5,1 km/h (1 Bft)
25.05.2011 08:35 16,1 C 16,8 C 9,2 C 20,9 C 20,9 C 4,8 C 56 % 83 % 100 % 1029,2 hPa 0,0 l/m 1,1 km/h (1 Bft) SW 225 5 min 0,7 UV-I 7,3 C 20,9 C 2,4 km/h (1 Bft)
25.05.2011 08:40 17,9 C 16,8 C 9,2 C 20,9 C 20,9 C 3,0 C 51 % 83 % 79 % 1029,2 hPa 0,0 l/m 1,6 km/h (1 Bft) W-SW 247 0 min 0,7 UV-I 7,6 C 20,9 C 2,1 km/h (1 Bft)
25.05.2011 08:45 17,1 C 16,7 C 9,2 C 21,1 C 21,1 C 4,0 C 52 % 83 % 100 % 1029,2 hPa 0,0 l/m 1,8 km/h (1 Bft) W 270 5 min 0,8 UV-I 7,2 C 21,1 C 3,1 km/h (1 Bft)
25.05.2011 08:50 16,9 C 16,7 C 9,2 C 21,6 C 21,6 C 4,7 C 51 % 83 % 100 % 1029,0 hPa 0,0 l/m 1,0 km/h (0 Bft) W-SW 247 5 min 0,9 UV-I 6,7 C 21,6 C 0,0 km/h (0 Bft)
25.05.2011 08:55 16,2 C 16,7 C 9,2 C 22,0 C 22,0 C 5,8 C 52 % 83 % 100 % 1029,0 hPa 0,0 l/m 1,0 km/h (0 Bft) W-SW 247 5 min 0,9 UV-I 6,3 C 22,0 C 1,9 km/h (1 Bft)
25.05.2011 09:00 15,7 C 16,7 C 9,2 C 21,5 C 21,5 C 5,8 C 52 % 83 % 100 % 1029,0 hPa 0,0 l/m 1,8 km/h (1 Bft) SW 225 5 min 1,0 UV-I 5,9 C 21,5 C 6,1 km/h (2 Bft)
25.05.2011 09:10 15,3 C 16,7 C 9,2 C 21,0 C 21,0 C 5,7 C 52 % 83 % 100 % 1029,3 hPa 0,0 l/m 2,6 km/h (1 Bft) N 0 10 min 1,2 UV-I 5,5 C 21,0 C 6,8 km/h (2 Bft)
25.05.2011 09:15 15,3 C 16,7 C 9,2 C 21,4 C 21,4 C 6,1 C 52 % 83 % 100 % 1029,3 hPa 0,0 l/m 2,3 km/h (1 Bft) S-SW 202 5 min 1,2 UV-I 5,5 C 21,4 C 3,4 km/h (1 Bft)
25.05.2011 09:20 15,3 C 16,7 C 9,2 C 21,0 C 21,0 C 5,7 C 51 % 83 % 100 % 1029,3 hPa 0,0 l/m 3,2 km/h (1 Bft) S-SW 202 5 min 1,3 UV-I 5,2 C 21,0 C 7,2 km/h (2 Bft)
25.05.2011 09:25 15,2 C 16,7 C 9,2 C 20,6 C 20,6 C 5,4 C 51 % 83 % 100 % 1029,3 hPa 0,0 l/m 4,2 km/h (1 Bft) O-SO 112 5 min 1,4 UV-I 5,1 C 20,6 C 2,6 km/h (1 Bft)
25.05.2011 09:30 15,2 C 16,7 C 9,2 C 20,5 C 20,5 C 5,3 C 50 % 83 % 100 % 1029,2 hPa 0,0 l/m 3,5 km/h (1 Bft) SW 225 5 min 1,4 UV-I 4,8 C 20,5 C 9,0 km/h (2 Bft)
25.05.2011 09:35 15,1 C 16,7 C 9,2 C 20,6 C 20,6 C 5,5 C 51 % 83 % 100 % 1029,2 hPa 0,0 l/m 2,7 km/h (1 Bft) N-NO 22 5 min 1,6 UV-I 5,0 C 20,6 C 2,1 km/h (1 Bft)
25.05.2011 09:40 15,1 C 16,6 C 9,2 C 21,4 C 21,4 C 6,3 C 51 % 83 % 100 % 1029,2 hPa 0,0 l/m 1,6 km/h (1 Bft) S 180 5 min 1,4 UV-I 5,0 C 21,4 C 3,2 km/h (1 Bft)
25.05.2011 09:45 15,3 C 16,6 C 9,2 C 21,8 C 21,8 C 6,5 C 51 % 83 % 100 % 1029,2 hPa 0,0 l/m 1,0 km/h (0 Bft) NW 315 5 min 0,9 UV-I 5,2 C 21,8 C 4,0 km/h (1 Bft)
25.05.2011 09:50 15,2 C 16,6 C 9,2 C 22,0 C 22,0 C 6,8 C 50 % 83 % 100 % 1029,1 hPa 0,0 l/m 2,4 km/h (1 Bft) SW 225 5 min 0,8 UV-I 4,8 C 22,0 C 5,8 km/h (2 Bft)
25.05.2011 09:55 15,2 C 16,6 C 9,2 C 21,6 C 21,6 C 6,4 C 50 % 83 % 100 % 1029,1 hPa 0,0 l/m 2,7 km/h (1 Bft) N-NW 337 5 min 0,8 UV-I 4,8 C 21,6 C 2,4 km/h (1 Bft)
25.05.2011 10:00 14,9 C 16,7 C 9,2 C 19,7 C 19,7 C 4,8 C 51 % 83 % 100 % 1029,1 hPa 0,0 l/m 2,4 km/h (1 Bft) W-SW 247 5 min 0,8 UV-I 4,9 C 19,7 C 4,5 km/h (1 Bft)
25.05.2011 10:10 15,2 C 16,7 C 9,2 C 19,9 C 19,9 C 4,7 C 49 % 83 % 100 % 1029,1 hPa 0,0 l/m 5,0 km/h (1 Bft) N 0 10 min 0,9 UV-I 4,6 C 19,9 C 9,8 km/h (2 Bft)
25.05.2011 10:15 15,3 C 16,7 C 9,2 C 19,9 C 19,9 C 4,6 C 49 % 83 % 100 % 1029,1 hPa 0,0 l/m 5,0 km/h (1 Bft) SO 135 5 min 0,9 UV-I 4,7 C 19,9 C 1,9 km/h (1 Bft)
25.05.2011 10:20 15,4 C 16,6 C 9,2 C 20,8 C 20,8 C 5,4 C 49 % 83 % 100 % 1029,1 hPa 0,0 l/m 3,5 km/h (1 Bft) W-SW 247 5 min 0,9 UV-I 4,7 C 20,8 C 3,5 km/h (1 Bft)
25.05.2011 10:25 15,5 C 16,6 C 9,2 C 21,1 C 21,1 C 5,6 C 49 % 83 % 100 % 1029,1 hPa 0,0 l/m 3,1 km/h (1 Bft) SW 225 5 min 1,0 UV-I 4,8 C 21,1 C 7,4 km/h (2 Bft)
25.05.2011 10:30 15,5 C 16,6 C 12,3 C 20,8 C 20,8 C 5,3 C 48 % 64 % 100 % 1028,8 hPa 0,0 l/m 3,7 km/h (1 Bft) NW 315 5 min 1,7 UV-I 4,5 C 20,8 C 10,6 km/h (2 Bft)
25.05.2011 10:35 15,6 C 16,6 C 12,4 C 20,8 C 20,8 C 5,2 C 47 % 60 % 100 % 1028,8 hPa 0,0 l/m 3,5 km/h (1 Bft) SW 225 5 min 2,4 UV-I 4,3 C 20,8 C 8,5 km/h (2 Bft)
25.05.2011 10:40 15,6 C 16,6 C 12,5 C 20,3 C 20,3 C 4,7 C 46 % 62 % 100 % 1028,8 hPa 0,0 l/m 4,5 km/h (1 Bft) S 180 5 min 2,5 UV-I 4,0 C 20,3 C 7,6 km/h (2 Bft)
25.05.2011 10:45 15,6 C 16,6 C 12,5 C 19,9 C 19,9 C 4,3 C 46 % 62 % 100 % 1028,8 hPa 0,0 l/m 5,6 km/h (1 Bft) W-SW 247 5 min 2,6 UV-I 4,0 C 19,9 C 3,2 km/h (1 Bft)
25.05.2011 10:50 15,7 C 16,6 C 12,5 C 20,4 C 20,4 C 4,7 C 45 % 62 % 100 % 1028,8 hPa 0,0 l/m 3,5 km/h (1 Bft) O-SO 112 5 min 2,7 UV-I 3,8 C 20,4 C 2,1 km/h (1 Bft)
25.05.2011 10:55 15,9 C 16,6 C 12,5 C 21,0 C 21,0 C 5,1 C 46 % 62 % 100 % 1028,8 hPa 0,0 l/m 1,8 km/h (1 Bft) W-SW 247 5 min 1,8 UV-I 4,3 C 21,0 C 5,5 km/h (1 Bft)
25.05.2011 11:00 15,8 C 16,6 C 12,5 C 20,9 C 20,9 C 5,1 C 44 % 62 % 100 % 1028,8 hPa 0,0 l/m 3,2 km/h (1 Bft) S 180 5 min 1,2 UV-I 3,6 C 20,9 C 6,0 km/h (2 Bft)
25.05.2011 11:10 16,0 C 16,7 C 12,5 C 21,1 C 21,1 C 5,1 C 44 % 62 % 100 % 1028,8 hPa 0,0 l/m 2,7 km/h (1 Bft) N 0 10 min 2,8 UV-I 3,8 C 21,1 C 2,6 km/h (1 Bft)
25.05.2011 11:15 16,3 C 16,7 C 12,5 C 21,4 C 21,4 C 5,1 C 44 % 62 % 100 % 1028,8 hPa 0,0 l/m 1,9 km/h (1 Bft) W-NW 292 5 min 2,6 UV-I 4,0 C 21,4 C 0,0 km/h (0 Bft)
25.05.2011 11:20 16,4 C 16,6 C 13,4 C 21,8 C 21,8 C 5,4 C 45 % 60 % 100 % 1028,8 hPa 0,0 l/m 2,4 km/h (1 Bft) SO 135 5 min 1,3 UV-I 4,4 C 21,8 C 5,5 km/h (1 Bft)
25.05.2011 11:25 16,5 C 16,6 C 13,4 C 21,4 C 21,4 C 4,9 C 44 % 54 % 100 % 1028,8 hPa 0,0 l/m 3,1 km/h (1 Bft) S-SO 157 5 min 1,2 UV-I 4,2 C 21,4 C 4,3 km/h (1 Bft)
25.05.2011 11:30 16,7 C 16,7 C 13,5 C 21,1 C 21,1 C 4,4 C 44 % 59 % 100 % 1028,5 hPa 0,0 l/m 3,9 km/h (1 Bft) O-SO 112 5 min 1,2 UV-I 4,4 C 21,1 C 4,0 km/h (1 Bft)
25.05.2011 11:35 16,8 C 16,7 C 13,6 C 21,1 C 21,1 C 4,3 C 43 % 58 % 100 % 1028,5 hPa 0,0 l/m 3,9 km/h (1 Bft) SW 225 5 min 1,2 UV-I 4,2 C 21,1 C 5,6 km/h (1 Bft)
25.05.2011 11:40 16,8 C 16,7 C 13,6 C 20,5 C 20,5 C 3,7 C 43 % 58 % 97 % 1028,5 hPa 0,0 l/m 5,1 km/h (1 Bft) S 180 5 min 1,2 UV-I 4,2 C 20,5 C 7,6 km/h (2 Bft)
25.05.2011 11:45 16,9 C 16,7 C 13,8 C 20,3 C 20,3 C 3,4 C 44 % 59 % 89 % 1028,5 hPa 0,0 l/m 5,5 km/h (1 Bft) S 180 5 min 1,2 UV-I 4,6 C 20,3 C 10,6 km/h (2 Bft)
25.05.2011 11:50 16,9 C 16,7 C 13,9 C 20,2 C 20,2 C 3,3 C 41 % 52 % 87 % 1028,2 hPa 0,0 l/m 5,1 km/h (1 Bft) S 180 5 min 1,4 UV-I 3,6 C 20,2 C 4,8 km/h (1 Bft)
25.05.2011 11:55 16,9 C 16,7 C 13,9 C 20,5 C 20,5 C 3,6 C 40 % 52 % 95 % 1028,2 hPa 0,0 l/m 4,2 km/h (1 Bft) S 180 5 min 2,8 UV-I 3,2 C 20,5 C 5,1 km/h (1 Bft)
25.05.2011 12:00 16,9 C 16,7 C 13,9 C 20,9 C 20,9 C 4,0 C 39 % 52 % 100 % 1028,2 hPa 0,0 l/m 3,5 km/h (1 Bft) S 180 5 min 3,1 UV-I 2,9 C 20,9 C 5,1 km/h (1 Bft)
25.05.2011 12:10 17,1 C 16,7 C 13,9 C 20,9 C 20,9 C 3,8 C 39 % 52 % 100 % 1027,9 hPa 0,0 l/m 4,0 km/h (1 Bft) N 0 10 min 2,9 UV-I 3,0 C 20,9 C 8,4 km/h (2 Bft)
25.05.2011 12:15 17,1 C 16,7 C 13,9 C 21,1 C 21,1 C 4,0 C 39 % 52 % 100 % 1027,9 hPa 0,0 l/m 3,4 km/h (1 Bft) S-SW 202 5 min 3,3 UV-I 3,0 C 21,1 C 0,0 km/h (0 Bft)
25.05.2011 12:20 17,2 C 16,7 C 13,9 C 21,7 C 21,7 C 4,5 C 39 % 52 % 100 % 1027,9 hPa 0,0 l/m 2,4 km/h (1 Bft) W-SW 247 5 min 3,5 UV-I 3,1 C 21,7 C 6,8 km/h (2 Bft)
25.05.2011 12:25 17,3 C 16,7 C 13,9 C 21,6 C 21,6 C 4,3 C 39 % 52 % 100 % 1027,9 hPa 0,0 l/m 2,1 km/h (1 Bft) W-NW 292 5 min 3,5 UV-I 3,2 C 21,6 C 4,2 km/h (1 Bft)
25.05.2011 12:30 17,3 C 16,7 C 13,9 C 21,5 C 21,5 C 4,2 C 39 % 52 % 100 % 1028,1 hPa 0,0 l/m 3,4 km/h (1 Bft) S 180 5 min 3,6 UV-I 3,2 C 21,5 C 3,4 km/h (1 Bft)
25.05.2011 12:35 17,3 C 16,7 C 13,9 C 21,5 C 21,5 C 4,2 C 39 % 52 % 100 % 1028,1 hPa 0,0 l/m 3,1 km/h (1 Bft) W-SW 247 5 min 3,7 UV-I 3,2 C 21,5 C 3,5 km/h (1 Bft)
25.05.2011 12:40 17,3 C 16,7 C 13,9 C 21,6 C 21,6 C 4,3 C 38 % 52 % 100 % 1028,1 hPa 0,0 l/m 2,6 km/h (1 Bft) NW 315 5 min 3,8 UV-I 2,9 C 21,6 C 2,4 km/h (1 Bft)
25.05.2011 12:45 17,4 C 16,7 C 13,9 C 21,9 C 21,9 C 4,5 C 39 % 52 % 100 % 1028,1 hPa 0,0 l/m 1,9 km/h (1 Bft) O-NO 67 5 min 3,9 UV-I 3,3 C 21,9 C 0,0 km/h (0 Bft)
25.05.2011 12:50 17,6 C 16,7 C 13,9 C 22,1 C 22,1 C 4,5 C 39 % 52 % 100 % 1027,9 hPa 0,0 l/m 2,3 km/h (1 Bft) N-NO 22 5 min 4,0 UV-I 3,5 C 22,1 C 10,1 km/h (2 Bft)
25.05.2011 12:55 17,5 C 16,8 C 13,9 C 21,4 C 21,4 C 3,9 C 39 % 52 % 100 % 1027,9 hPa 0,0 l/m 4,2 km/h (1 Bft) SW 225 5 min 4,1 UV-I 3,4 C 21,4 C 3,4 km/h (1 Bft)
25.05.2011 13:00 17,5 C 16,8 C 13,9 C 21,0 C 21,0 C 3,5 C 39 % 52 % 92 % 1027,9 hPa 0,0 l/m 5,3 km/h (1 Bft) W-SW 247 5 min 4,1 UV-I 3,4 C 21,0 C 2,9 km/h (1 Bft)
25.05.2011 13:08 17,6 C 16,8 C 13,9 C 21,1 C 21,1 C 3,5 C 39 % 52 % 92 % 1027,6 hPa 0,0 l/m 4,5 km/h (1 Bft) N 0 8 min 4,3 UV-I 3,5 C 21,1 C 3,4 km/h (1 Bft)
25.05.2011 13:15 17,8 C 16,7 C 13,9 C 21,1 C 21,1 C 3,3 C 40 % 52 % 87 % 1027,6 hPa 0,0 l/m 5,3 km/h (1 Bft) S-SW 202 7 min 4,3 UV-I 4,0 C 21,1 C 11,9 km/h (2 Bft)
25.05.2011 13:20 17,7 C 16,8 C 13,9 C 20,9 C 20,9 C 3,2 C 39 % 52 % 84 % 1027,6 hPa 0,0 l/m 4,8 km/h (1 Bft) W-SW 247 0 min 4,2 UV-I 3,6 C 20,9 C 9,3 km/h (2 Bft)
25.05.2011 13:25 17,7 C 16,7 C 16,4 C 20,8 C 20,8 C 3,1 C 39 % 48 % 82 % 1027,6 hPa 0,0 l/m 5,6 km/h (1 Bft) SW 225 0 min 4,1 UV-I 3,6 C 20,8 C 7,6 km/h (2 Bft)
25.05.2011 13:30 17,9 C 16,7 C 16,4 C 20,7 C 20,7 C 2,8 C 39 % 48 % 74 % 1027,5 hPa 0,0 l/m 5,8 km/h (2 Bft) S 180 0 min 4,1 UV-I 3,8 C 20,7 C 5,1 km/h (1 Bft)
25.05.2011 13:35 17,7 C 16,7 C 16,6 C 20,9 C 20,9 C 3,2 C 37 % 44 % 84 % 1027,5 hPa 0,0 l/m 5,1 km/h (1 Bft) O 90 0 min 4,1 UV-I 2,8 C 20,9 C 6,4 km/h (2 Bft)
25.05.2011 13:40 17,7 C 16,8 C 16,3 C 21,1 C 21,1 C 3,4 C 38 % 44 % 89 % 1027,5 hPa 0,0 l/m 3,5 km/h (1 Bft) O-NO 67 5 min 4,1 UV-I 3,2 C 21,1 C 3,5 km/h (1 Bft)
25.05.2011 13:45 17,8 C 16,8 C 16,1 C 21,7 C 21,7 C 3,9 C 39 % 47 % 100 % 1027,5 hPa 0,0 l/m 2,4 km/h (1 Bft) W 270 5 min 4,1 UV-I 3,7 C 21,7 C 6,9 km/h (2 Bft)
25.05.2011 13:50 18,0 C 16,8 C 16,5 C 22,2 C 22,2 C 4,2 C 39 % 49 % 100 % 1027,0 hPa 0,0 l/m 2,9 km/h (1 Bft) W-SW 247 5 min 4,1 UV-I 3,8 C 22,2 C 5,5 km/h (1 Bft)
25.05.2011 13:55 18,1 C 16,8 C 16,5 C 22,1 C 22,1 C 4,0 C 39 % 49 % 100 % 1027,0 hPa 0,0 l/m 4,7 km/h (1 Bft) W-SW 247 5 min 4,1 UV-I 3,9 C 22,1 C 8,2 km/h (2 Bft)
25.05.2011 14:00 18,3 C 16,8 C 17,6 C 21,8 C 21,8 C 3,5 C 39 % 51 % 92 % 1027,0 hPa 0,0 l/m 5,1 km/h (1 Bft) SW 225 5 min 4,1 UV-I 4,1 C 21,8 C 2,4 km/h (1 Bft)
25.05.2011 14:10 18,4 C 16,9 C 17,7 C 22,5 C 22,5 C 4,1 C 39 % 49 % 100 % 1026,9 hPa 0,0 l/m 2,1 km/h (1 Bft) N 0 10 min 4,0 UV-I 4,2 C 22,5 C 2,7 km/h (1 Bft)
25.05.2011 14:15 18,5 C 16,8 C 17,7 C 22,8 C 22,8 C 4,3 C 38 % 49 % 100 % 1026,9 hPa 0,0 l/m 2,3 km/h (1 Bft) W 270 5 min 3,9 UV-I 3,9 C 22,8 C 7,1 km/h (2 Bft)
25.05.2011 14:20 18,5 C 16,8 C 18,0 C 23,0 C 23,0 C 4,5 C 38 % 48 % 100 % 1026,9 hPa 0,0 l/m 2,3 km/h (1 Bft) S 180 5 min 3,8 UV-I 3,9 C 23,0 C 2,6 km/h (1 Bft)
25.05.2011 14:25 18,5 C 16,8 C 18,0 C 23,0 C 23,0 C 4,5 C 38 % 48 % 100 % 1026,9 hPa 0,0 l/m 2,9 km/h (1 Bft) W 270 5 min 3,8 UV-I 3,9 C 23,0 C 3,2 km/h (1 Bft)
25.05.2011 14:30 18,8 C 16,8 C 18,0 C 23,3 C 23,3 C 4,5 C 38 % 48 % 100 % 1026,8 hPa 0,0 l/m 2,7 km/h (1 Bft) W 270 5 min 3,8 UV-I 4,2 C 23,3 C 3,5 km/h (1 Bft)
25.05.2011 14:35 18,9 C 16,9 C 18,0 C 23,6 C 23,6 C 4,7 C 39 % 48 % 100 % 1026,8 hPa 0,0 l/m 2,6 km/h (1 Bft) SW 225 5 min 3,8 UV-I 4,6 C 23,6 C 4,8 km/h (1 Bft)
25.05.2011 14:40 18,8 C 16,9 C 18,0 C 23,1 C 23,1 C 4,3 C 38 % 48 % 100 % 1026,8 hPa 0,0 l/m 3,1 km/h (1 Bft) N-NW 337 5 min 3,7 UV-I 4,2 C 23,1 C 0,0 km/h (0 Bft)
25.05.2011 14:45 18,9 C 16,9 C 18,0 C 23,3 C 23,3 C 4,4 C 38 % 48 % 100 % 1026,8 hPa 0,0 l/m 2,7 km/h (1 Bft) N-NO 22 5 min 3,5 UV-I 4,3 C 23,3 C 3,1 km/h (1 Bft)
25.05.2011 14:50 18,9 C 16,9 C 18,0 C 23,6 C 23,6 C 4,7 C 37 % 48 % 100 % 1026,5 hPa 0,0 l/m 1,6 km/h (1 Bft) NO 45 5 min 3,3 UV-I 3,9 C 23,6 C 2,6 km/h (1 Bft)
25.05.2011 14:55 19,1 C 17,0 C 18,0 C 23,7 C 23,7 C 4,6 C 39 % 48 % 100 % 1026,5 hPa 0,0 l/m 1,8 km/h (1 Bft) W-SW 247 5 min 3,2 UV-I 4,8 C 23,7 C 1,8 km/h (1 Bft)
25.05.2011 15:00 19,4 C 17,0 C 18,0 C 23,8 C 23,8 C 4,4 C 37 % 48 % 100 % 1026,5 hPa 0,0 l/m 1,8 km/h (1 Bft) S 180 5 min 3,1 UV-I 4,3 C 23,8 C 7,1 km/h (2 Bft)
25.05.2011 15:10 19,6 C 17,1 C 18,0 C 24,0 C 24,0 C 4,4 C 35 % 48 % 100 % 1026,3 hPa 0,0 l/m 2,1 km/h (1 Bft) N 0 10 min 2,9 UV-I 3,7 C 24,0 C 2,9 km/h (1 Bft)
25.05.2011 15:15 19,6 C 17,1 C 18,0 C 24,3 C 24,3 C 4,7 C 36 % 48 % 100 % 1026,3 hPa 0,0 l/m 1,6 km/h (1 Bft) SW 225 5 min 2,9 UV-I 4,1 C 24,3 C 5,1 km/h (1 Bft)
25.05.2011 15:20 19,7 C 17,1 C 18,0 C 24,3 C 24,3 C 4,6 C 36 % 48 % 100 % 1026,3 hPa 0,0 l/m 1,8 km/h (1 Bft) SO 135 5 min 2,9 UV-I 4,2 C 24,3 C 0,0 km/h (0 Bft)
25.05.2011 15:25 19,6 C 17,1 C 18,0 C 24,2 C 24,2 C 4,6 C 36 % 48 % 100 % 1026,3 hPa 0,0 l/m 1,9 km/h (1 Bft) SO 135 5 min 2,9 UV-I 4,1 C 24,2 C 2,9 km/h (1 Bft)
25.05.2011 15:30 19,7 C 17,2 C 18,0 C 24,0 C 24,0 C 4,3 C 35 % 48 % 100 % 1026,1 hPa 0,0 l/m 2,6 km/h (1 Bft) N 360 5 min 2,9 UV-I 3,8 C 24,0 C 5,1 km/h (1 Bft)
25.05.2011 15:35 19,6 C 17,3 C 18,0 C 24,0 C 24,0 C 4,4 C 36 % 48 % 100 % 1026,1 hPa 0,0 l/m 2,9 km/h (1 Bft) NW 315 5 min 2,8 UV-I 4,1 C 24,0 C 3,5 km/h (1 Bft)
25.05.2011 15:40 19,5 C 17,3 C 18,0 C 24,0 C 24,0 C 4,5 C 35 % 48 % 100 % 1026,1 hPa 0,0 l/m 1,8 km/h (1 Bft) O-NO 67 5 min 2,7 UV-I 3,6 C 24,0 C 3,4 km/h (1 Bft)
25.05.2011 15:45 19,7 C 17,3 C 20,7 C 24,2 C 24,2 C 4,5 C 35 % 37 % 100 % 1026,1 hPa 0,0 l/m 1,6 km/h (1 Bft) W-SW 247 5 min 2,6 UV-I 3,8 C 24,2 C 2,7 km/h (1 Bft)
25.05.2011 15:50 19,9 C 17,4 C 20,9 C 24,6 C 24,6 C 4,7 C 37 % 43 % 100 % 1025,8 hPa 0,0 l/m 1,9 km/h (1 Bft) S-SO 157 5 min 2,5 UV-I 4,8 C 24,6 C 3,2 km/h (1 Bft)
25.05.2011 15:55 20,0 C 17,4 C 21,7 C 24,4 C 24,4 C 4,4 C 36 % 43 % 100 % 1025,8 hPa 0,0 l/m 2,6 km/h (1 Bft) S 180 5 min 2,3 UV-I 4,5 C 24,4 C 5,8 km/h (2 Bft)
25.05.2011 16:00 20,2 C 17,5 C 22,1 C 24,1 C 24,1 C 3,9 C 34 % 36 % 100 % 1025,8 hPa 0,0 l/m 2,3 km/h (1 Bft) O 90 5 min 2,2 UV-I 3,8 C 24,1 C 0,0 km/h (0 Bft)
25.05.2011 16:10 20,1 C 17,6 C 22,0 C 24,0 C 24,0 C 3,9 C 35 % 38 % 100 % 1025,7 hPa 0,0 l/m 3,1 km/h (1 Bft) N 0 10 min 2,0 UV-I 4,2 C 24,0 C 8,9 km/h (2 Bft)
25.05.2011 16:15 20,1 C 17,6 C 21,9 C 23,5 C 23,5 C 3,4 C 35 % 41 % 89 % 1025,7 hPa 0,0 l/m 4,3 km/h (1 Bft) W-SW 247 5 min 1,9 UV-I 4,2 C 23,5 C 3,2 km/h (1 Bft)
25.05.2011 16:20 20,3 C 17,6 C 22,1 C 23,5 C 23,5 C 3,2 C 35 % 39 % 84 % 1025,7 hPa 0,0 l/m 4,2 km/h (1 Bft) S-SO 157 0 min 1,8 UV-I 4,3 C 23,5 C 3,2 km/h (1 Bft)
25.05.2011 16:25 20,3 C 17,7 C 21,6 C 23,5 C 23,5 C 3,2 C 35 % 41 % 84 % 1025,7 hPa 0,0 l/m 2,6 km/h (1 Bft) S-SW 202 0 min 1,2 UV-I 4,3 C 23,5 C 4,2 km/h (1 Bft)
25.05.2011 16:30 20,4 C 17,7 C 21,9 C 23,5 C 23,5 C 3,1 C 35 % 43 % 82 % 1025,6 hPa 0,0 l/m 1,9 km/h (1 Bft) W-SW 247 0 min 0,9 UV-I 4,4 C 23,5 C 0,0 km/h (0 Bft)
25.05.2011 16:35 20,4 C 17,7 C 21,4 C 23,7 C 23,7 C 3,3 C 35 % 42 % 87 % 1025,6 hPa 0,0 l/m 2,9 km/h (1 Bft) W-SW 247 5 min 0,9 UV-I 4,4 C 23,7 C 4,2 km/h (1 Bft)
25.05.2011 16:40 20,5 C 17,8 C 21,4 C 23,8 C 23,8 C 3,3 C 36 % 42 % 87 % 1025,6 hPa 0,0 l/m 2,7 km/h (1 Bft) W-SW 247 5 min 0,8 UV-I 4,9 C 23,8 C 4,8 km/h (1 Bft)
25.05.2011 16:45 20,7 C 17,8 C 21,4 C 23,8 C 23,8 C 3,1 C 36 % 42 % 82 % 1025,6 hPa 0,0 l/m 2,7 km/h (1 Bft) S 180 0 min 0,8 UV-I 5,1 C 23,8 C 5,6 km/h (1 Bft)
25.05.2011 16:50 20,8 C 17,8 C 21,5 C 24,0 C 24,0 C 3,2 C 36 % 40 % 84 % 1025,4 hPa 0,0 l/m 2,1 km/h (1 Bft) SW 225 0 min 0,8 UV-I 5,2 C 24,0 C 0,0 km/h (0 Bft)
25.05.2011 16:55 20,9 C 17,9 C 21,5 C 24,4 C 24,4 C 3,5 C 35 % 38 % 92 % 1025,4 hPa 0,0 l/m 2,1 km/h (1 Bft) O-SO 112 5 min 1,2 UV-I 4,9 C 24,4 C 2,7 km/h (1 Bft)
25.05.2011 17:00 20,9 C 17,9 C 20,9 C 24,4 C 24,4 C 3,5 C 35 % 39 % 92 % 1025,4 hPa 0,0 l/m 2,6 km/h (1 Bft) NW 315 5 min 1,2 UV-I 4,9 C 24,4 C 5,1 km/h (1 Bft)
25.05.2011 17:08 21,1 C 17,9 C 21,5 C 23,3 C 23,3 C 2,2 C 35 % 42 % 58 % 1025,2 hPa 0,0 l/m 4,7 km/h (1 Bft) N 0 0 min 1,1 UV-I 5,0 C 23,3 C 5,6 km/h (1 Bft)
25.05.2011 17:15 21,2 C 17,9 C 21,7 C 23,1 C 23,1 C 1,9 C 35 % 40 % 50 % 1025,2 hPa 0,0 l/m 4,2 km/h (1 Bft) S 180 0 min 1,1 UV-I 5,1 C 23,1 C 2,1 km/h (1 Bft)
25.05.2011 17:20 21,4 C 18,0 C 21,7 C 23,3 C 23,3 C 1,9 C 35 % 40 % 50 % 1025,2 hPa 0,0 l/m 3,5 km/h (1 Bft) W-SW 247 0 min 1,0 UV-I 5,3 C 23,3 C 5,0 km/h (1 Bft)
25.05.2011 17:25 21,5 C 18,0 C 21,1 C 23,4 C 23,4 C 1,9 C 35 % 40 % 50 % 1025,2 hPa 0,0 l/m 3,2 km/h (1 Bft) SW 225 0 min 0,9 UV-I 5,4 C 23,4 C 2,7 km/h (1 Bft)
25.05.2011 17:30 21,2 C 18,0 C 20,5 C 23,6 C 23,6 C 2,4 C 33 % 37 % 63 % 1025,2 hPa 0,0 l/m 2,9 km/h (1 Bft) NW 315 0 min 0,9 UV-I 4,3 C 23,6 C 2,9 km/h (1 Bft)
25.05.2011 17:35 21,2 C 18,0 C 19,7 C 23,9 C 23,9 C 2,7 C 33 % 37 % 71 % 1025,2 hPa 0,0 l/m 1,9 km/h (1 Bft) NO 45 0 min 0,8 UV-I 4,3 C 23,9 C 3,4 km/h (1 Bft)
25.05.2011 17:40 20,7 C 18,0 C 19,2 C 23,6 C 23,6 C 2,9 C 32 % 38 % 76 % 1025,2 hPa 0,0 l/m 1,9 km/h (1 Bft) NO 45 0 min 0,7 UV-I 3,4 C 23,6 C 2,6 km/h (1 Bft)
25.05.2011 17:45 20,7 C 18,0 C 18,9 C 23,9 C 23,9 C 3,2 C 34 % 41 % 84 % 1025,2 hPa 0,0 l/m 1,8 km/h (1 Bft) N-NW 337 0 min 0,6 UV-I 4,3 C 23,9 C 1,6 km/h (1 Bft)
25.05.2011 17:50 21,1 C 18,0 C 19,3 C 24,5 C 24,5 C 3,4 C 35 % 42 % 89 % 1024,8 hPa 0,0 l/m 1,3 km/h (1 Bft) SW 225 5 min 0,6 UV-I 5,0 C 24,5 C 1,9 km/h (1 Bft)
25.05.2011 17:55 21,3 C 18,1 C 19,3 C 24,4 C 24,4 C 3,1 C 35 % 42 % 82 % 1024,8 hPa 0,0 l/m 2,1 km/h (1 Bft) S 180 0 min 0,5 UV-I 5,2 C 24,4 C 6,4 km/h (2 Bft)
25.05.2011 18:00 21,5 C 18,1 C 19,3 C 23,7 C 23,7 C 2,2 C 35 % 42 % 58 % 1024,8 hPa 0,0 l/m 3,7 km/h (1 Bft) S 180 0 min 0,5 UV-I 5,4 C 23,7 C 5,1 km/h (1 Bft)
25.05.2011 18:10 21,6 C 18,1 C 20,6 C 23,7 C 23,7 C 2,1 C 35 % 42 % 55 % 1024,8 hPa 0,0 l/m 2,6 km/h (1 Bft) N 0 0 min 0,4 UV-I 5,5 C 23,7 C 4,0 km/h (1 Bft)
25.05.2011 18:15 21,6 C 18,1 C 20,6 C 23,8 C 23,8 C 2,2 C 34 % 42 % 58 % 1024,8 hPa 0,0 l/m 2,3 km/h (1 Bft) NW 315 0 min 0,4 UV-I 5,1 C 23,8 C 5,0 km/h (1 Bft)
25.05.2011 18:20 21,3 C 18,1 C 20,6 C 23,7 C 23,7 C 2,4 C 34 % 42 % 63 % 1024,8 hPa 0,0 l/m 1,9 km/h (1 Bft) W-SW 247 0 min 0,4 UV-I 4,8 C 23,7 C 0,0 km/h (0 Bft)
25.05.2011 18:25 21,5 C 18,1 C 19,2 C 23,9 C 23,9 C 2,4 C 34 % 42 % 63 % 1024,8 hPa 0,0 l/m 1,4 km/h (1 Bft) W 270 0 min 0,3 UV-I 5,0 C 23,9 C 0,0 km/h (0 Bft)
25.05.2011 18:30 21,7 C 18,1 C 19,4 C 24,0 C 24,0 C 2,3 C 34 % 43 % 61 % 1024,4 hPa 0,0 l/m 1,8 km/h (1 Bft) W 270 0 min 0,3 UV-I 5,2 C 24,0 C 2,4 km/h (1 Bft)
25.05.2011 18:35 21,5 C 18,1 C 19,3 C 23,8 C 23,8 C 2,3 C 34 % 42 % 61 % 1024,4 hPa 0,0 l/m 2,3 km/h (1 Bft) O-NO 67 0 min 0,2 UV-I 5,0 C 23,8 C 0,0 km/h (0 Bft)
25.05.2011 18:40 21,3 C 18,1 C 18,9 C 23,8 C 23,8 C 2,5 C 34 % 40 % 66 % 1024,4 hPa 0,0 l/m 1,1 km/h (1 Bft) W 270 0 min 0,2 UV-I 4,8 C 23,8 C 2,3 km/h (1 Bft)
25.05.2011 18:45 21,3 C 18,2 C 18,7 C 23,9 C 23,9 C 2,6 C 34 % 42 % 68 % 1024,4 hPa 0,0 l/m 0,6 km/h (0 Bft) N-NW 337 0 min 0,2 UV-I 4,8 C 23,9 C 2,1 km/h (1 Bft)
25.05.2011 18:50 21,0 C 18,2 C 18,5 C 23,6 C 23,6 C 2,6 C 34 % 41 % 68 % 1024,2 hPa 0,0 l/m 1,3 km/h (1 Bft) NO 45 0 min 0,2 UV-I 4,5 C 23,6 C 1,9 km/h (1 Bft)
25.05.2011 18:55 20,6 C 18,3 C 18,3 C 23,2 C 23,2 C 2,6 C 34 % 43 % 68 % 1024,2 hPa 0,0 l/m 1,8 km/h (1 Bft) O-NO 67 0 min 0,1 UV-I 4,2 C 23,2 C 0,0 km/h (0 Bft)
25.05.2011 19:00 20,7 C 18,3 C 18,1 C 23,0 C 23,0 C 2,3 C 35 % 41 % 61 % 1024,2 hPa 0,0 l/m 1,3 km/h (1 Bft) O 90 0 min 0,1 UV-I 4,7 C 23,0 C 1,9 km/h (1 Bft)
25.05.2011 19:10 20,9 C 18,3 C 18,1 C 22,8 C 22,8 C 1,9 C 34 % 42 % 50 % 1024,1 hPa 0,0 l/m 0,6 km/h (0 Bft) N 0 0 min 0,1 UV-I 4,4 C 22,8 C 0,0 km/h (0 Bft)
25.05.2011 19:15 20,8 C 18,3 C 18,1 C 22,6 C 22,6 C 1,8 C 34 % 42 % 47 % 1024,1 hPa 0,0 l/m 1,1 km/h (1 Bft) O-NO 67 0 min 0,1 UV-I 4,4 C 22,6 C 3,7 km/h (1 Bft)
25.05.2011 19:20 20,5 C 18,3 C 17,9 C 22,1 C 22,1 C 1,6 C 34 % 42 % 42 % 1024,1 hPa 0,0 l/m 1,4 km/h (1 Bft) NO 45 0 min 0,1 UV-I 4,1 C 22,1 C 2,3 km/h (1 Bft)
25.05.2011 19:25 20,4 C 18,3 C 17,9 C 21,9 C 21,9 C 1,5 C 34 % 42 % 39 % 1024,1 hPa 0,0 l/m 1,6 km/h (1 Bft) O-NO 67 0 min 0,0 UV-I 4,0 C 21,9 C 2,1 km/h (1 Bft)
25.05.2011 19:30 20,0 C 18,3 C 17,6 C 21,5 C 21,5 C 1,5 C 34 % 42 % 39 % 1024,1 hPa 0,0 l/m 2,1 km/h (1 Bft) O-NO 67 0 min 0,0 UV-I 3,7 C 21,5 C 3,1 km/h (1 Bft)
25.05.2011 19:35 19,9 C 18,3 C 17,5 C 21,2 C 21,2 C 1,3 C 35 % 44 % 34 % 1024,1 hPa 0,0 l/m 2,6 km/h (1 Bft) NO 45 0 min 0,0 UV-I 4,0 C 21,2 C 4,3 km/h (1 Bft)
25.05.2011 19:40 19,7 C 18,3 C 17,5 C 20,7 C 20,7 C 1,0 C 35 % 45 % 26 % 1024,1 hPa 0,0 l/m 2,3 km/h (1 Bft) O-NO 67 0 min 0,0 UV-I 3,8 C 20,7 C 0,0 km/h (0 Bft)
25.05.2011 19:45 19,7 C 18,3 C 17,3 C 20,7 C 20,7 C 1,0 C 35 % 43 % 26 % 1024,1 hPa 0,0 l/m 2,1 km/h (1 Bft) O-NO 67 0 min 0,0 UV-I 3,8 C 20,7 C 3,2 km/h (1 Bft)
25.05.2011 19:50 19,5 C 18,3 C 17,1 C 20,3 C 20,3 C 0,8 C 37 % 47 % 21 % 1023,6 hPa 0,0 l/m 2,3 km/h (1 Bft) O-NO 67 0 min 0,0 UV-I 4,4 C 20,3 C 2,6 km/h (1 Bft)
25.05.2011 19:55 19,2 C 18,3 C 16,9 C 20,0 C 20,0 C 0,8 C 38 % 48 % 21 % 1023,6 hPa 0,0 l/m 3,1 km/h (1 Bft) O 90 0 min 0,0 UV-I 4,5 C 20,0 C 3,5 km/h (1 Bft)
25.05.2011 20:00 18,9 C 18,3 C 16,6 C 19,2 C 19,2 C 0,3 C 38 % 48 % 8 % 1023,6 hPa 0,0 l/m 3,2 km/h (1 Bft) NO 45 0 min 0,0 UV-I 4,3 C 19,2 C 3,4 km/h (1 Bft)
25.05.2011 20:08 18,5 C 18,3 C 16,3 C 18,0 C 17,1 C 0,0 C 39 % 50 % 0 % 1024,4 hPa 0,0 l/m 3,1 km/h (1 Bft) N 0 0 min 0,0 UV-I 4,3 C 17,1 C 3,9 km/h (1 Bft)
25.05.2011 20:15 18,3 C 18,3 C 16,3 C 17,8 C 16,7 C 0,0 C 39 % 49 % 0 % 1024,4 hPa 0,0 l/m 2,9 km/h (1 Bft) NO 45 0 min 0,0 UV-I 4,1 C 16,7 C 3,4 km/h (1 Bft)
25.05.2011 20:20 18,0 C 18,3 C 16,0 C 17,4 C 16,1 C 0,0 C 40 % 50 % 0 % 1024,4 hPa 0,0 l/m 2,9 km/h (1 Bft) O-NO 67 0 min 0,0 UV-I 4,2 C 16,1 C 3,1 km/h (1 Bft)
25.05.2011 20:25 17,9 C 18,3 C 15,8 C 17,2 C 15,9 C 0,0 C 40 % 51 % 0 % 1024,4 hPa 0,0 l/m 2,6 km/h (1 Bft) NO 45 0 min 0,0 UV-I 4,1 C 15,9 C 1,9 km/h (1 Bft)
25.05.2011 20:30 17,7 C 18,3 C 15,6 C 16,9 C 15,4 C 0,0 C 41 % 52 % 0 % 1023,8 hPa 0,0 l/m 2,3 km/h (1 Bft) NO 45 0 min 0,0 UV-I 4,3 C 15,4 C 2,6 km/h (1 Bft)
25.05.2011 20:35 17,5 C 18,3 C 15,3 C 16,7 C 15,2 C 0,0 C 41 % 53 % 0 % 1023,8 hPa 0,0 l/m 2,1 km/h (1 Bft) NO 45 0 min 0,0 UV-I 4,1 C 15,2 C 1,9 km/h (1 Bft)
25.05.2011 20:40 17,2 C 18,3 C 15,1 C 16,4 C 14,9 C 0,0 C 43 % 54 % 0 % 1023,8 hPa 0,0 l/m 1,4 km/h (1 Bft) N-NO 22 0 min 0,0 UV-I 4,5 C 14,9 C 0,0 km/h (0 Bft)
25.05.2011 20:45 17,1 C 18,3 C 15,1 C 16,2 C 14,5 C 0,0 C 44 % 54 % 0 % 1023,8 hPa 0,0 l/m 0,6 km/h (0 Bft) N 360 0 min 0,0 UV-I 4,8 C 14,5 C 0,0 km/h (0 Bft)
25.05.2011 20:50 16,8 C 18,2 C 14,8 C 15,8 C 13,8 C 0,0 C 45 % 56 % 0 % 1023,6 hPa 0,0 l/m 0,0 km/h (0 Bft) N 360 0 min 0,0 UV-I 4,8 C 13,8 C 0,0 km/h (0 Bft)
25.05.2011 20:55 16,6 C 18,3 C 14,5 C 15,6 C 13,5 C 0,0 C 46 % 57 % 0 % 1023,6 hPa 0,0 l/m 0,0 km/h (0 Bft) NO 45 0 min 0,0 UV-I 4,9 C 13,5 C 0,0 km/h (0 Bft)
25.05.2011 21:00 16,1 C 18,3 C 14,3 C 15,1 C 13,0 C 0,0 C 49 % 58 % 0 % 1023,6 hPa 0,0 l/m 0,0 km/h (0 Bft) N-NO 22 0 min 0,0 UV-I 5,4 C 13,0 C 0,0 km/h (0 Bft)
25.05.2011 21:10 16,1 C 18,3 C 13,9 C 14,7 C 12,0 C 0,0 C 53 % 62 % 0 % 1023,5 hPa 0,0 l/m 0,0 km/h (0 Bft) N 0 0 min 0,0 UV-I 6,5 C 12,0 C 0,0 km/h (0 Bft)
25.05.2011 21:15 16,3 C 18,3 C 13,8 C 14,8 C 11,7 C 0,0 C 55 % 65 % 0 % 1023,5 hPa 0,0 l/m 0,0 km/h (0 Bft) W-SW 247 0 min 0,0 UV-I 7,2 C 11,7 C 0,0 km/h (0 Bft)
25.05.2011 21:20 16,1 C 18,3 C 13,6 C 14,5 C 11,3 C 0,0 C 56 % 65 % 0 % 1023,5 hPa 0,0 l/m 0,0 km/h (0 Bft) NW 315 0 min 0,0 UV-I 7,3 C 11,3 C 0,0 km/h (0 Bft)
25.05.2011 21:25 15,6 C 18,3 C 13,5 C 14,0 C 10,9 C 0,0 C 56 % 65 % 0 % 1023,5 hPa 0,0 l/m 0,0 km/h (0 Bft) O-NO 67 0 min 0,0 UV-I 6,9 C 10,9 C 0,0 km/h (0 Bft)
25.05.2011 21:30 15,2 C 18,3 C 13,0 C 13,7 C 10,8 C 0,0 C 57 % 66 % 0 % 1023,6 hPa 0,0 l/m 0,0 km/h (0 Bft) N-NO 22 0 min 0,0 UV-I 6,7 C 10,8 C 0,0 km/h (0 Bft)
25.05.2011 21:35 15,1 C 18,3 C 12,8 C 13,6 C 10,6 C 0,0 C 56 % 65 % 0 % 1023,6 hPa 0,0 l/m 0,0 km/h (0 Bft) N-NO 22 0 min 0,0 UV-I 6,4 C 10,6 C 0,0 km/h (0 Bft)
25.05.2011 21:40 15,1 C 18,3 C 12,7 C 13,5 C 10,4 C 0,0 C 57 % 67 % 0 % 1023,6 hPa 0,0 l/m 0,0 km/h (0 Bft) NW 315 0 min 0,0 UV-I 6,6 C 10,4 C 0,0 km/h (0 Bft)
25.05.2011 21:45 15,0 C 18,3 C 12,7 C 13,4 C 10,1 C 0,0 C 59 % 68 % 0 % 1023,6 hPa 0,0 l/m 0,0 km/h (0 Bft) W 270 0 min 0,0 UV-I 7,1 C 10,1 C 0,0 km/h (0 Bft)
25.05.2011 21:50 15,1 C 18,3 C 12,7 C 13,4 C 9,9 C 0,0 C 60 % 70 % 0 % 1023,7 hPa 0,0 l/m 0,0 km/h (0 Bft) W-SW 247 0 min 0,0 UV-I 7,4 C 9,9 C 0,0 km/h (0 Bft)
25.05.2011 21:55 14,9 C 18,3 C 12,5 C 13,2 C 9,7 C 0,0 C 61 % 71 % 0 % 1023,7 hPa 0,0 l/m 0,0 km/h (0 Bft) N-NW 337 0 min 0,0 UV-I 7,4 C 9,7 C 0,0 km/h (0 Bft)
25.05.2011 22:00 14,7 C 18,3 C 12,3 C 12,9 C 9,4 C 0,0 C 63 % 72 % 0 % 1023,7 hPa 0,0 l/m 0,0 km/h (0 Bft) W 270 0 min 0,0 UV-I 7,7 C 9,4 C 0,0 km/h (0 Bft)
25.05.2011 22:10 14,4 C 18,4 C 12,0 C 12,6 C 8,9 C 0,0 C 64 % 72 % 0 % 1024,4 hPa 0,0 l/m 0,0 km/h (0 Bft) N 0 0 min 0,0 UV-I 7,7 C 8,9 C 0,0 km/h (0 Bft)
25.05.2011 22:15 14,3 C 18,3 C 12,0 C 12,5 C 8,8 C 0,0 C 64 % 74 % 0 % 1024,4 hPa 0,0 l/m 0,0 km/h (0 Bft) W-SW 247 0 min 0,0 UV-I 7,6 C 8,8 C 0,0 km/h (0 Bft)
25.05.2011 22:20 14,1 C 18,3 C 11,9 C 12,3 C 8,7 C 0,0 C 65 % 74 % 0 % 1024,4 hPa 0,0 l/m 0,0 km/h (0 Bft) SW 225 0 min 0,0 UV-I 7,6 C 8,7 C 0,0 km/h (0 Bft)
25.05.2011 22:25 14,1 C 18,3 C 11,7 C 12,3 C 8,7 C 0,0 C 66 % 76 % 0 % 1024,4 hPa 0,0 l/m 0,0 km/h (0 Bft) SW 225 0 min 0,0 UV-I 7,8 C 8,7 C 0,0 km/h (0 Bft)
25.05.2011 22:30 13,9 C 18,3 C 11,6 C 12,1 C 8,5 C 0,0 C 66 % 76 % 0 % 1024,2 hPa 0,0 l/m 0,0 km/h (0 Bft) SW 225 0 min 0,0 UV-I 7,7 C 8,5 C 0,0 km/h (0 Bft)
25.05.2011 22:35 13,9 C 18,3 C 11,5 C 12,1 C 8,4 C 0,0 C 66 % 76 % 0 % 1024,2 hPa 0,0 l/m 0,0 km/h (0 Bft) W-SW 247 0 min 0,0 UV-I 7,7 C 8,4 C 0,0 km/h (0 Bft)
25.05.2011 22:40 13,6 C 18,3 C 11,3 C 11,8 C 8,2 C 0,0 C 66 % 76 % 0 % 1024,2 hPa 0,0 l/m 0,0 km/h (0 Bft) SW 225 0 min 0,0 UV-I 7,4 C 8,2 C 0,0 km/h (0 Bft)
25.05.2011 22:45 13,5 C 18,3 C 11,2 C 11,7 C 8,0 C 0,0 C 66 % 76 % 0 % 1024,2 hPa 0,0 l/m 0,0 km/h (0 Bft) W-NW 292 0 min 0,0 UV-I 7,3 C 8,0 C 0,0 km/h (0 Bft)
25.05.2011 22:50 13,1 C 18,3 C 10,9 C 11,4 C 7,9 C 0,0 C 66 % 76 % 0 % 1023,3 hPa 0,0 l/m 0,0 km/h (0 Bft) W-NW 292 0 min 0,0 UV-I 6,9 C 7,9 C 0,0 km/h (0 Bft)
25.05.2011 22:55 13,1 C 18,3 C 10,9 C 11,3 C 7,8 C 0,0 C 66 % 76 % 0 % 1023,3 hPa 0,0 l/m 0,0 km/h (0 Bft) W-SW 247 0 min 0,0 UV-I 6,9 C 7,8 C 0,0 km/h (0 Bft)
25.05.2011 23:00 12,9 C 18,3 C 10,7 C 11,2 C 7,7 C 0,0 C 67 % 77 % 0 % 1023,3 hPa 0,0 l/m 0,0 km/h (0 Bft) W 270 0 min 0,0 UV-I 6,9 C 7,7 C 0,0 km/h (0 Bft)
25.05.2011 23:08 12,5 C 18,3 C 10,6 C 10,8 C 7,4 C 0,0 C 67 % 77 % 0 % 1023,1 hPa 0,0 l/m 0,0 km/h (0 Bft) N 0 0 min 0,0 UV-I 6,5 C 7,4 C 0,0 km/h (0 Bft)
25.05.2011 23:15 12,5 C 18,2 C 10,4 C 10,8 C 7,4 C 0,0 C 68 % 77 % 0 % 1023,1 hPa 0,0 l/m 0,0 km/h (0 Bft) W 270 0 min 0,0 UV-I 6,8 C 7,4 C 0,0 km/h (0 Bft)
25.05.2011 23:20 12,5 C 18,2 C 10,4 C 10,8 C 7,3 C 0,0 C 69 % 78 % 0 % 1023,1 hPa 0,0 l/m 0,0 km/h (0 Bft) NW 315 0 min 0,0 UV-I 7,0 C 7,3 C 0,0 km/h (0 Bft)
25.05.2011 23:25 12,3 C 18,2 C 10,3 C 10,6 C 7,3 C 0,0 C 69 % 78 % 0 % 1023,1 hPa 0,0 l/m 0,0 km/h (0 Bft) NW 315 0 min 0,0 UV-I 6,8 C 7,3 C 0,0 km/h (0 Bft)
25.05.2011 23:30 12,3 C 18,2 C 10,3 C 10,6 C 7,2 C 0,0 C 70 % 79 % 0 % 1023,1 hPa 0,0 l/m 0,0 km/h (0 Bft) SW 225 0 min 0,0 UV-I 7,0 C 7,2 C 0,0 km/h (0 Bft)
25.05.2011 23:35 12,3 C 18,2 C 10,2 C 10,6 C 7,1 C 0,0 C 70 % 79 % 0 % 1023,1 hPa 0,0 l/m 0,0 km/h (0 Bft) W 270 0 min 0,0 UV-I 7,0 C 7,1 C 0,0 km/h (0 Bft)
25.05.2011 23:40 12,2 C 18,2 C 10,1 C 10,5 C 7,0 C 0,0 C 70 % 79 % 0 % 1023,1 hPa 0,0 l/m 0,0 km/h (0 Bft) NW 315 0 min 0,0 UV-I 6,9 C 7,0 C 0,0 km/h (0 Bft)
25.05.2011 23:45 11,9 C 18,2 C 9,9 C 10,2 C 6,9 C 0,0 C 70 % 79 % 0 % 1023,1 hPa 0,0 l/m 0,0 km/h (0 Bft) NW 315 0 min 0,0 UV-I 6,6 C 6,9 C 0,0 km/h (0 Bft)
25.05.2011 23:50 11,9 C 18,1 C 9,9 C 10,2 C 6,9 C 0,0 C 72 % 81 % 0 % 1022,8 hPa 0,0 l/m 0,0 km/h (0 Bft) NO 45 0 min 0,0 UV-I 7,0 C 6,9 C 0,0 km/h (0 Bft)
25.05.2011 23:55 12,0 C 18,1 C 9,8 C 10,3 C 6,9 C 0,0 C 72 % 82 % 0 % 1022,8 hPa 0,0 l/m 0,0 km/h (0 Bft) W-SW 247 0 min 0,0 UV-I 7,1 C 6,9 C 0,0 km/h (0 Bft)
_ Min-Zeit 05:15 09:40 05:40 05:35 05:30 00:00 17:40 16:00 00:00 23:50 - 00:10 - - - 00:00 13:35 05:30 00:00
Minimum _ 8,5 C 16,6 C 6,7 C 6,9 C 3,6 C 0,0 C 32 % 36 % 0 % 1022,8 hPa - 0,0 km/h (0 Bft) - - - 0,0 UV-I 2,8 C 3,6 C 0,0 km/h (0 Bft)
_ Max-Zeit 18:30 00:00 16:00 15:50 15:50 09:50 04:55 06:30 07:30 09:10 00:00 13:30 - - 08:10 13:08 07:08 15:50 13:15
Maximum _ 21,7 C 18,6 C 22,1 C 24,6 C 24,6 C 6,8 C 75 % 86 % 100 % 1029,3 hPa 0,0 l/m 5,8 km/h
S (2 Bft)
- - 10 min 4,3 UV-I 9,0 C 24,6 C 11,9 km/h
S-SW (2 Bft)
Durchschnitt _ 15,4 C 17,6 C 12,8 C 16,8 C 15,4 C 2,1 C 53 % 66 % 46 % 1026,6 hPa #0,0 l/m 1,6 km/h (1 Bft) S - #8:55 h 1,8 UV-I 5,3 C 15,4 C 2,3 km/h (1 Bft)
2013 www.wetterstation-wechselburg.de